sensor_id;sensor_type;location;lat;lon;timestamp;pressure;altitude;pressure_sealevel;temperature;humidity
14204;BME280;7185;51.854;6.622;2023-08-08T00:02:08;101079.84;;;19.89;73.38
14204;BME280;7185;51.854;6.622;2023-08-08T00:04:40;101082.06;;;19.79;73.40
14204;BME280;7185;51.854;6.622;2023-08-08T00:07:12;101077.13;;;19.71;73.48
14204;BME280;7185;51.854;6.622;2023-08-08T00:09:45;101086.31;;;19.64;73.75
14204;BME280;7185;51.854;6.622;2023-08-08T00:12:17;101074.56;;;19.51;73.96
14204;BME280;7185;51.854;6.622;2023-08-08T00:14:49;101077.44;;;19.46;74.25
14204;BME280;7185;51.854;6.622;2023-08-08T00:17:22;101075.28;;;19.35;74.58
14204;BME280;7185;51.854;6.622;2023-08-08T00:19:54;101069.97;;;19.35;73.64
14204;BME280;7185;51.854;6.622;2023-08-08T00:22:26;101064.19;;;19.27;74.07
14204;BME280;7185;51.854;6.622;2023-08-08T00:24:58;101063.09;;;19.31;73.89
14204;BME280;7185;51.854;6.622;2023-08-08T00:27:30;101064.69;;;19.16;74.43
14204;BME280;7185;51.854;6.622;2023-08-08T00:30:02;101060.09;;;19.20;74.04
14204;BME280;7185;51.854;6.622;2023-08-08T00:32:35;101071.94;;;19.13;73.85
14204;BME280;7185;51.854;6.622;2023-08-08T00:35:09;101069.59;;;19.06;74.30
14204;BME280;7185;51.854;6.622;2023-08-08T00:37:41;101071.00;;;18.94;74.38
14204;BME280;7185;51.854;6.622;2023-08-08T00:40:16;101069.41;;;19.09;74.16
14204;BME280;7185;51.854;6.622;2023-08-08T00:42:48;101065.06;;;18.88;74.64
14204;BME280;7185;51.854;6.622;2023-08-08T00:45:20;101063.22;;;18.90;74.80
14204;BME280;7185;51.854;6.622;2023-08-08T00:47:53;101057.28;;;18.83;74.19
14204;BME280;7185;51.854;6.622;2023-08-08T00:50:25;101068.28;;;18.96;73.81
14204;BME280;7185;51.854;6.622;2023-08-08T00:52:57;101070.06;;;18.95;73.72
14204;BME280;7185;51.854;6.622;2023-08-08T00:55:29;101073.03;;;18.88;73.71
14204;BME280;7185;51.854;6.622;2023-08-08T00:58:01;101069.28;;;18.93;73.37
14204;BME280;7185;51.854;6.622;2023-08-08T01:00:32;101062.81;;;18.78;73.73
14204;BME280;7185;51.854;6.622;2023-08-08T01:03:06;101064.75;;;18.75;73.78
14204;BME280;7185;51.854;6.622;2023-08-08T01:05:47;101064.19;;;18.68;73.97
14204;BME280;7185;51.854;6.622;2023-08-08T01:08:22;101065.31;;;18.62;73.99
14204;BME280;7185;51.854;6.622;2023-08-08T01:10:58;101061.16;;;18.57;74.19
14204;BME280;7185;51.854;6.622;2023-08-08T01:13:31;101052.72;;;18.87;73.22
14204;BME280;7185;51.854;6.622;2023-08-08T01:16:04;101062.31;;;18.70;73.84
14204;BME280;7185;51.854;6.622;2023-08-08T01:18:38;101059.00;;;18.65;74.25
14204;BME280;7185;51.854;6.622;2023-08-08T01:21:11;101063.78;;;18.77;74.26
14204;BME280;7185;51.854;6.622;2023-08-08T01:23:46;101050.97;;;18.67;74.59
14204;BME280;7185;51.854;6.622;2023-08-08T01:26:24;101051.09;;;18.63;74.93
14204;BME280;7185;51.854;6.622;2023-08-08T01:28:56;101050.50;;;18.77;74.60
14204;BME280;7185;51.854;6.622;2023-08-08T01:31:28;101043.44;;;18.76;74.35
14204;BME280;7185;51.854;6.622;2023-08-08T01:34:00;101042.38;;;18.80;74.40
14204;BME280;7185;51.854;6.622;2023-08-08T01:36:35;101047.13;;;18.74;74.43
14204;BME280;7185;51.854;6.622;2023-08-08T01:39:14;101045.03;;;18.80;74.44
14204;BME280;7185;51.854;6.622;2023-08-08T01:41:50;101038.38;;;18.91;74.32
14204;BME280;7185;51.854;6.622;2023-08-08T01:44:24;101026.75;;;18.93;74.38
14204;BME280;7185;51.854;6.622;2023-08-08T01:46:57;101031.06;;;18.96;74.08
14204;BME280;7185;51.854;6.622;2023-08-08T01:49:29;101033.84;;;18.93;73.82
14204;BME280;7185;51.854;6.622;2023-08-08T01:52:00;101042.50;;;18.98;74.01
14204;BME280;7185;51.854;6.622;2023-08-08T01:54:32;101041.56;;;18.99;73.58
14204;BME280;7185;51.854;6.622;2023-08-08T01:57:06;101038.13;;;18.97;73.33
14204;BME280;7185;51.854;6.622;2023-08-08T01:59:38;101039.53;;;19.04;73.42
14204;BME280;7185;51.854;6.622;2023-08-08T02:02:09;101038.31;;;19.11;72.92
14204;BME280;7185;51.854;6.622;2023-08-08T02:04:41;101046.09;;;18.97;73.39
14204;BME280;7185;51.854;6.622;2023-08-08T02:07:13;101030.84;;;19.20;72.46
14204;BME280;7185;51.854;6.622;2023-08-08T02:09:46;101027.22;;;19.21;72.36
14204;BME280;7185;51.854;6.622;2023-08-08T02:12:19;101031.78;;;19.19;72.62
14204;BME280;7185;51.854;6.622;2023-08-08T02:14:51;101020.44;;;19.15;73.03
14204;BME280;7185;51.854;6.622;2023-08-08T02:17:24;101020.16;;;19.02;73.35
14204;BME280;7185;51.854;6.622;2023-08-08T02:19:56;101019.72;;;19.11;73.50
14204;BME280;7185;51.854;6.622;2023-08-08T02:22:28;101010.91;;;18.90;73.67
14204;BME280;7185;51.854;6.622;2023-08-08T02:25:00;101006.22;;;18.97;73.07
14204;BME280;7185;51.854;6.622;2023-08-08T02:27:33;100996.72;;;19.10;73.39
14204;BME280;7185;51.854;6.622;2023-08-08T02:30:09;101002.06;;;19.10;73.12
14204;BME280;7185;51.854;6.622;2023-08-08T02:32:40;101003.69;;;19.13;72.84
14204;BME280;7185;51.854;6.622;2023-08-08T02:35:12;100999.72;;;18.84;74.03
14204;BME280;7185;51.854;6.622;2023-08-08T02:37:44;100999.72;;;18.84;73.73
14204;BME280;7185;51.854;6.622;2023-08-08T02:40:16;100993.50;;;18.85;74.09
14204;BME280;7185;51.854;6.622;2023-08-08T02:42:50;100999.56;;;18.87;74.10
14204;BME280;7185;51.854;6.622;2023-08-08T02:45:22;100988.31;;;18.82;73.85
14204;BME280;7185;51.854;6.622;2023-08-08T02:47:54;100982.66;;;18.70;74.16
14204;BME280;7185;51.854;6.622;2023-08-08T02:50:25;100981.50;;;18.95;73.54
14204;BME280;7185;51.854;6.622;2023-08-08T02:52:57;100981.50;;;18.95;73.27
14204;BME280;7185;51.854;6.622;2023-08-08T02:55:29;100987.00;;;18.92;73.36
14204;BME280;7185;51.854;6.622;2023-08-08T02:58:02;100973.69;;;18.92;73.51
14204;BME280;7185;51.854;6.622;2023-08-08T03:00:34;100972.69;;;18.94;73.50
14204;BME280;7185;51.854;6.622;2023-08-08T03:03:06;100974.63;;;19.10;73.03
14204;BME280;7185;51.854;6.622;2023-08-08T03:05:39;100972.53;;;18.98;73.56
14204;BME280;7185;51.854;6.622;2023-08-08T03:08:10;100972.63;;;18.96;73.48
14204;BME280;7185;51.854;6.622;2023-08-08T03:10:42;100969.03;;;18.97;73.13
14204;BME280;7185;51.854;6.622;2023-08-08T03:13:15;100966.88;;;19.05;73.49
14204;BME280;7185;51.854;6.622;2023-08-08T03:15:47;100966.56;;;19.11;73.20
14204;BME280;7185;51.854;6.622;2023-08-08T03:18:19;100966.56;;;19.11;73.01
14204;BME280;7185;51.854;6.622;2023-08-08T03:20:53;100962.41;;;19.06;72.96
14204;BME280;7185;51.854;6.622;2023-08-08T03:23:24;100974.75;;;19.07;72.68
14204;BME280;7185;51.854;6.622;2023-08-08T03:25:56;100974.22;;;19.37;71.94
14204;BME280;7185;51.854;6.622;2023-08-08T03:28:30;100974.00;;;19.41;71.75
14204;BME280;7185;51.854;6.622;2023-08-08T03:31:01;100971.28;;;19.24;71.91
14204;BME280;7185;51.854;6.622;2023-08-08T03:33:33;100968.31;;;19.30;72.25
14204;BME280;7185;51.854;6.622;2023-08-08T03:36:05;100976.06;;;18.98;73.24
14204;BME280;7185;51.854;6.622;2023-08-08T03:38:38;100976.31;;;19.11;72.81
14204;BME280;7185;51.854;6.622;2023-08-08T03:41:13;100976.72;;;19.21;72.50
14204;BME280;7185;51.854;6.622;2023-08-08T03:43:47;100976.59;;;19.24;72.19
14204;BME280;7185;51.854;6.622;2023-08-08T03:46:19;100972.44;;;19.18;72.18
14204;BME280;7185;51.854;6.622;2023-08-08T03:48:51;100976.28;;;19.13;72.88
14204;BME280;7185;51.854;6.622;2023-08-08T03:51:23;100963.09;;;19.29;72.44
14204;BME280;7185;51.854;6.622;2023-08-08T03:53:55;100968.72;;;19.03;73.19
14204;BME280;7185;51.854;6.622;2023-08-08T03:56:27;100960.97;;;18.99;73.60
14204;BME280;7185;51.854;6.622;2023-08-08T03:59:01;100962.63;;;19.01;73.46
14204;BME280;7185;51.854;6.622;2023-08-08T04:01:36;100968.13;;;19.16;73.06
14204;BME280;7185;51.854;6.622;2023-08-08T04:04:11;100959.19;;;18.99;73.53
14204;BME280;7185;51.854;6.622;2023-08-08T04:06:44;100970.09;;;18.93;74.06
14204;BME280;7185;51.854;6.622;2023-08-08T04:09:18;100963.56;;;18.81;74.36
14204;BME280;7185;51.854;6.622;2023-08-08T04:11:50;100967.44;;;18.93;74.14
14204;BME280;7185;51.854;6.622;2023-08-08T04:14:23;100962.19;;;18.91;74.10
14204;BME280;7185;51.854;6.622;2023-08-08T04:16:55;100949.44;;;19.17;73.69
14204;BME280;7185;51.854;6.622;2023-08-08T04:19:27;100966.69;;;19.08;73.76
14204;BME280;7185;51.854;6.622;2023-08-08T04:22:02;100960.63;;;19.06;73.92
14204;BME280;7185;51.854;6.622;2023-08-08T04:24:35;100961.91;;;18.98;74.51
14204;BME280;7185;51.854;6.622;2023-08-08T04:27:07;100956.38;;;19.02;74.24
14204;BME280;7185;51.854;6.622;2023-08-08T04:29:40;100961.19;;;18.94;74.64
14204;BME280;7185;51.854;6.622;2023-08-08T04:32:12;100951.25;;;19.17;73.86
14204;BME280;7185;51.854;6.622;2023-08-08T04:34:44;100957.75;;;18.92;74.58
14204;BME280;7185;51.854;6.622;2023-08-08T04:37:16;100956.66;;;19.15;73.88
14204;BME280;7185;51.854;6.622;2023-08-08T04:39:48;100963.94;;;19.29;73.74
14204;BME280;7185;51.854;6.622;2023-08-08T04:42:20;100964.09;;;19.26;74.27
14204;BME280;7185;51.854;6.622;2023-08-08T04:44:56;100963.81;;;19.32;74.02
14204;BME280;7185;51.854;6.622;2023-08-08T04:47:28;100967.28;;;19.15;74.76
14204;BME280;7185;51.854;6.622;2023-08-08T04:50:00;100959.41;;;19.31;74.27
14204;BME280;7185;51.854;6.622;2023-08-08T04:52:31;100955.63;;;19.18;74.75
14204;BME280;7185;51.854;6.622;2023-08-08T04:55:03;100949.41;;;19.36;74.05
14204;BME280;7185;51.854;6.622;2023-08-08T04:57:35;100957.69;;;19.30;73.86
14204;BME280;7185;51.854;6.622;2023-08-08T05:00:09;100960.22;;;19.33;74.04
14204;BME280;7185;51.854;6.622;2023-08-08T05:02:41;100953.00;;;19.35;73.90
14204;BME280;7185;51.854;6.622;2023-08-08T05:05:27;100944.25;;;19.33;73.89
14204;BME280;7185;51.854;6.622;2023-08-08T05:08:13;100945.28;;;19.31;74.58
14204;BME280;7185;51.854;6.622;2023-08-08T05:10:59;100953.56;;;19.42;73.79
14204;BME280;7185;51.854;6.622;2023-08-08T05:13:30;100950.81;;;19.43;74.03
14204;BME280;7185;51.854;6.622;2023-08-08T05:16:22;100950.81;;;19.43;74.00
14204;BME280;7185;51.854;6.622;2023-08-08T05:19:08;100957.25;;;19.57;73.64
14204;BME280;7185;51.854;6.622;2023-08-08T05:21:53;100950.38;;;19.53;73.94
14204;BME280;7185;51.854;6.622;2023-08-08T05:24:39;100946.47;;;19.60;73.90
14204;BME280;7185;51.854;6.622;2023-08-08T05:27:11;100948.88;;;19.47;73.82
14204;BME280;7185;51.854;6.622;2023-08-08T05:29:45;100944.97;;;19.54;74.15
14204;BME280;7185;51.854;6.622;2023-08-08T05:32:19;100949.03;;;19.62;74.00
14204;BME280;7185;51.854;6.622;2023-08-08T05:34:52;100939.66;;;19.72;73.76
14204;BME280;7185;51.854;6.622;2023-08-08T05:37:46;100943.97;;;19.74;73.51
14204;BME280;7185;51.854;6.622;2023-08-08T05:43:17;100943.72;;;19.79;73.44
14204;BME280;7185;51.854;6.622;2023-08-08T05:45:49;100944.44;;;20.00;73.11
14204;BME280;7185;51.854;6.622;2023-08-08T05:48:36;100946.06;;;19.68;73.95
14204;BME280;7185;51.854;6.622;2023-08-08T05:51:08;100947.59;;;19.91;73.45
14204;BME280;7185;51.854;6.622;2023-08-08T05:53:40;100949.28;;;19.92;73.37
14204;BME280;7185;51.854;6.622;2023-08-08T05:56:13;100950.88;;;19.96;73.71
14204;BME280;7185;51.854;6.622;2023-08-08T05:58:46;100950.69;;;19.82;73.56
14204;BME280;7185;51.854;6.622;2023-08-08T06:01:30;100957.84;;;20.32;73.04
14204;BME280;7185;51.854;6.622;2023-08-08T06:04:17;100959.44;;;20.19;73.04
14204;BME280;7185;51.854;6.622;2023-08-08T06:06:49;100954.41;;;20.30;72.12
14204;BME280;7185;51.854;6.622;2023-08-08T06:09:46;100954.75;;;20.06;73.27
14204;BME280;7185;51.854;6.622;2023-08-08T06:12:35;100950.50;;;20.20;72.42
14204;BME280;7185;51.854;6.622;2023-08-08T06:15:09;100952.25;;;20.03;73.38
14204;BME280;7185;51.854;6.622;2023-08-08T06:24:00;100954.72;;;20.24;72.37
14204;BME280;7185;51.854;6.622;2023-08-08T06:26:47;100964.63;;;20.04;73.61
14204;BME280;7185;51.854;6.622;2023-08-08T06:29:52;100959.47;;;20.35;72.78
14204;BME280;7185;51.854;6.622;2023-08-08T06:32:57;100964.28;;;20.44;72.26
14204;BME280;7185;51.854;6.622;2023-08-08T06:35:52;100967.38;;;20.36;72.30
14204;BME280;7185;51.854;6.622;2023-08-08T06:39:04;100963.78;;;20.37;72.38
14204;BME280;7185;51.854;6.622;2023-08-08T06:42:09;100957.97;;;20.47;72.07
14204;BME280;7185;51.854;6.622;2023-08-08T06:45:18;100952.81;;;20.60;71.95
14204;BME280;7185;51.854;6.622;2023-08-08T06:49:04;100946.78;;;20.74;71.44
14204;BME280;7185;51.854;6.622;2023-08-08T06:52:19;100961.78;;;20.25;72.64
14204;BME280;7185;51.854;6.622;2023-08-08T06:55:34;100949.56;;;20.70;71.16
14204;BME280;7185;51.854;6.622;2023-08-08T06:58:16;100953.53;;;20.79;71.03
14204;BME280;7185;51.854;6.622;2023-08-08T07:04:37;100956.03;;;20.82;70.12
14204;BME280;7185;51.854;6.622;2023-08-08T07:07:33;100961.38;;;20.98;69.74
14204;BME280;7185;51.854;6.622;2023-08-08T07:10:27;100957.31;;;20.91;69.81
14204;BME280;7185;51.854;6.622;2023-08-08T07:13:56;100961.31;;;21.00;69.56
14204;BME280;7185;51.854;6.622;2023-08-08T07:16:47;100957.34;;;21.07;68.83
14204;BME280;7185;51.854;6.622;2023-08-08T07:19:20;100957.50;;;21.04;68.94
14204;BME280;7185;51.854;6.622;2023-08-08T07:21:59;100963.00;;;21.17;67.61
14204;BME280;7185;51.854;6.622;2023-08-08T07:24:48;100951.31;;;21.04;67.29
14204;BME280;7185;51.854;6.622;2023-08-08T07:27:31;100957.59;;;21.02;66.99
14204;BME280;7185;51.854;6.622;2023-08-08T07:30:16;100959.28;;;21.36;66.98
14204;BME280;7185;51.854;6.622;2023-08-08T07:32:53;100969.38;;;20.49;67.12
14204;BME280;7185;51.854;6.622;2023-08-08T07:35:41;100961.91;;;20.40;67.87
14204;BME280;7185;51.854;6.622;2023-08-08T07:38:21;100963.22;;;20.64;67.56
14204;BME280;7185;51.854;6.622;2023-08-08T07:41:04;100952.34;;;20.85;66.87
14204;BME280;7185;51.854;6.622;2023-08-08T07:44:15;100951.50;;;21.00;66.73
14204;BME280;7185;51.854;6.622;2023-08-08T07:47:20;100954.06;;;20.86;66.48
14204;BME280;7185;51.854;6.622;2023-08-08T07:49:56;100952.66;;;21.27;65.94
14204;BME280;7185;51.854;6.622;2023-08-08T07:52:40;100949.75;;;21.31;65.83
14204;BME280;7185;51.854;6.622;2023-08-08T07:55:33;100948.56;;;21.52;63.64
14204;BME280;7185;51.854;6.622;2023-08-08T07:58:16;100950.03;;;21.57;64.30
14204;BME280;7185;51.854;6.622;2023-08-08T08:01:09;100944.72;;;21.57;63.96
14204;BME280;7185;51.854;6.622;2023-08-08T08:04:03;100942.09;;;21.72;63.55
14204;BME280;7185;51.854;6.622;2023-08-08T08:06:49;100941.75;;;22.07;63.18
14204;BME280;7185;51.854;6.622;2023-08-08T08:09:26;100945.47;;;21.90;63.50
14204;BME280;7185;51.854;6.622;2023-08-08T08:12:05;100941.53;;;21.81;62.00
14204;BME280;7185;51.854;6.622;2023-08-08T08:14:53;100947.03;;;21.78;61.25
14204;BME280;7185;51.854;6.622;2023-08-08T08:17:52;100950.91;;;22.32;61.33
14204;BME280;7185;51.854;6.622;2023-08-08T08:20:28;100955.03;;;22.66;60.22
14204;BME280;7185;51.854;6.622;2023-08-08T08:23:07;100949.38;;;21.99;60.45
14204;BME280;7185;51.854;6.622;2023-08-08T08:25:48;100951.88;;;22.16;59.93
14204;BME280;7185;51.854;6.622;2023-08-08T08:28:39;100949.53;;;21.81;58.78
14204;BME280;7185;51.854;6.622;2023-08-08T08:31:27;100949.22;;;22.16;57.42
14204;BME280;7185;51.854;6.622;2023-08-08T08:34:30;100942.22;;;21.85;57.20
14204;BME280;7185;51.854;6.622;2023-08-08T08:37:18;100946.47;;;21.73;57.52
14204;BME280;7185;51.854;6.622;2023-08-08T08:39:53;100939.94;;;22.07;57.50
14204;BME280;7185;51.854;6.622;2023-08-08T08:43:02;100942.88;;;22.75;57.31
14204;BME280;7185;51.854;6.622;2023-08-08T08:46:00;100934.81;;;22.89;55.97
14204;BME280;7185;51.854;6.622;2023-08-08T08:48:50;100932.34;;;23.01;53.88
14204;BME280;7185;51.854;6.622;2023-08-08T08:52:09;100938.44;;;22.61;53.46
14204;BME280;7185;51.854;6.622;2023-08-08T09:06:01;100934.66;;;23.47;51.23
14204;BME280;7185;51.854;6.622;2023-08-08T09:09:05;100941.88;;;23.85;50.16
14204;BME280;7185;51.854;6.622;2023-08-08T09:11:53;100928.41;;;24.00;49.25
14204;BME280;7185;51.854;6.622;2023-08-08T09:15:01;100940.09;;;24.25;48.80
14204;BME280;7185;51.854;6.622;2023-08-08T09:17:42;100932.94;;;24.62;48.70
14204;BME280;7185;51.854;6.622;2023-08-08T09:20:16;100932.81;;;24.64;47.30
14204;BME280;7185;51.854;6.622;2023-08-08T09:22:51;100929.69;;;24.83;48.00
14204;BME280;7185;51.854;6.622;2023-08-08T09:25:31;100930.78;;;25.29;46.46
14204;BME280;7185;51.854;6.622;2023-08-08T09:28:17;100948.19;;;23.84;48.19
14204;BME280;7185;51.854;6.622;2023-08-08T09:30:51;100950.88;;;23.84;48.09
14204;BME280;7185;51.854;6.622;2023-08-08T09:33:28;100943.13;;;23.67;48.27
14204;BME280;7185;51.854;6.622;2023-08-08T09:36:03;100942.22;;;24.07;48.37
14204;BME280;7185;51.854;6.622;2023-08-08T09:38:42;100941.53;;;24.55;46.60
14204;BME280;7185;51.854;6.622;2023-08-08T09:41:19;100938.59;;;24.21;48.06
14204;BME280;7185;51.854;6.622;2023-08-08T09:43:53;100941.44;;;24.56;47.45
14204;BME280;7185;51.854;6.622;2023-08-08T09:46:25;100939.28;;;24.98;47.45
14204;BME280;7185;51.854;6.622;2023-08-08T09:48:58;100939.34;;;24.10;47.49
14204;BME280;7185;51.854;6.622;2023-08-08T09:51:31;100949.34;;;24.58;46.27
14204;BME280;7185;51.854;6.622;2023-08-08T09:54:06;100938.00;;;25.04;45.41
14204;BME280;7185;51.854;6.622;2023-08-08T09:56:39;100940.63;;;24.17;45.81
14204;BME280;7185;51.854;6.622;2023-08-08T09:59:16;100946.22;;;23.61;47.47
14204;BME280;7185;51.854;6.622;2023-08-08T10:01:50;100949.59;;;24.29;46.48
14204;BME280;7185;51.854;6.622;2023-08-08T10:04:25;100950.88;;;24.36;46.42
14204;BME280;7185;51.854;6.622;2023-08-08T10:06:58;100944.69;;;24.23;46.84
14204;BME280;7185;51.854;6.622;2023-08-08T10:09:39;100935.84;;;24.72;46.61
14204;BME280;7185;51.854;6.622;2023-08-08T10:12:13;100943.09;;;23.94;46.03
14204;BME280;7185;51.854;6.622;2023-08-08T10:14:46;100945.81;;;23.67;47.31
14204;BME280;7185;51.854;6.622;2023-08-08T10:17:35;100943.75;;;23.98;47.48
14204;BME280;7185;51.854;6.622;2023-08-08T10:20:10;100947.78;;;23.91;47.77
14204;BME280;7185;51.854;6.622;2023-08-08T10:22:55;100949.59;;;24.42;46.49
14204;BME280;7185;51.854;6.622;2023-08-08T10:25:52;100936.84;;;24.32;47.62
14204;BME280;7185;51.854;6.622;2023-08-08T10:28:35;100936.66;;;24.23;46.51
14204;BME280;7185;51.854;6.622;2023-08-08T10:31:16;100942.19;;;24.32;46.85
14204;BME280;7185;51.854;6.622;2023-08-08T10:34:00;100942.31;;;23.92;47.46
14204;BME280;7185;51.854;6.622;2023-08-08T10:36:48;100951.31;;;23.38;48.77
14204;BME280;7185;51.854;6.622;2023-08-08T10:39:24;100950.81;;;23.18;49.25
14204;BME280;7185;51.854;6.622;2023-08-08T10:42:03;100942.81;;;23.04;50.34
14204;BME280;7185;51.854;6.622;2023-08-08T10:44:40;100946.91;;;23.10;50.22
14204;BME280;7185;51.854;6.622;2023-08-08T10:47:34;100951.31;;;23.38;50.22
14204;BME280;7185;51.854;6.622;2023-08-08T10:50:16;100955.34;;;23.84;49.39
14204;BME280;7185;51.854;6.622;2023-08-08T10:52:55;100947.91;;;24.28;47.66
14204;BME280;7185;51.854;6.622;2023-08-08T10:55:41;100953.28;;;24.28;47.69
14204;BME280;7185;51.854;6.622;2023-08-08T10:58:16;100941.09;;;24.61;46.61
14204;BME280;7185;51.854;6.622;2023-08-08T11:00:50;100943.34;;;24.54;45.46
14204;BME280;7185;51.854;6.622;2023-08-08T11:03:24;100929.34;;;24.88;44.79
14204;BME280;7185;51.854;6.622;2023-08-08T11:05:56;100939.72;;;25.76;44.11
14204;BME280;7185;51.854;6.622;2023-08-08T11:08:29;100933.50;;;24.92;43.83
14204;BME280;7185;51.854;6.622;2023-08-08T11:11:03;100935.50;;;24.64;45.29
14204;BME280;7185;51.854;6.622;2023-08-08T11:13:38;100950.31;;;23.79;45.84
14204;BME280;7185;51.854;6.622;2023-08-08T11:16:11;100942.84;;;24.36;43.79
14204;BME280;7185;51.854;6.622;2023-08-08T11:19:11;100937.00;;;25.54;44.36
14204;BME280;7185;51.854;6.622;2023-08-08T11:21:51;100937.03;;;25.76;42.69
14204;BME280;7185;51.854;6.622;2023-08-08T11:24:23;100922.88;;;26.21;43.01
14204;BME280;7185;51.854;6.622;2023-08-08T11:26:59;100923.22;;;26.28;42.36
14204;BME280;7185;51.854;6.622;2023-08-08T11:29:33;100933.91;;;25.23;43.86
14204;BME280;7185;51.854;6.622;2023-08-08T11:32:06;100942.81;;;24.62;45.64
14204;BME280;7185;51.854;6.622;2023-08-08T11:34:39;100943.72;;;24.24;46.13
14204;BME280;7185;51.854;6.622;2023-08-08T11:37:11;100926.16;;;24.82;45.88
14204;BME280;7185;51.854;6.622;2023-08-08T11:39:45;100918.84;;;25.80;44.37
14204;BME280;7185;51.854;6.622;2023-08-08T11:42:31;100923.47;;;25.67;45.17
14204;BME280;7185;51.854;6.622;2023-08-08T11:45:09;100923.03;;;26.86;43.72
14204;BME280;7185;51.854;6.622;2023-08-08T11:47:42;100931.28;;;26.51;43.30
14204;BME280;7185;51.854;6.622;2023-08-08T11:50:28;100928.78;;;25.91;42.67
14204;BME280;7185;51.854;6.622;2023-08-08T11:53:03;100908.63;;;26.65;42.40
14204;BME280;7185;51.854;6.622;2023-08-08T11:55:49;100919.59;;;25.71;44.02
14204;BME280;7185;51.854;6.622;2023-08-08T11:58:24;100909.91;;;26.27;43.77
14204;BME280;7185;51.854;6.622;2023-08-08T12:01:09;100922.19;;;26.06;44.10
14204;BME280;7185;51.854;6.622;2023-08-08T12:03:55;100911.00;;;26.13;44.95
14204;BME280;7185;51.854;6.622;2023-08-08T12:06:40;100915.09;;;25.94;41.90
14204;BME280;7185;51.854;6.622;2023-08-08T12:09:16;100916.78;;;25.37;42.12
14204;BME280;7185;51.854;6.622;2023-08-08T12:11:53;100913.66;;;25.19;43.10
14204;BME280;7185;51.854;6.622;2023-08-08T12:19:54;100905.19;;;24.50;44.85
14204;BME280;7185;51.854;6.622;2023-08-08T12:28:53;100895.81;;;25.89;41.97
14204;BME280;7185;51.854;6.622;2023-08-08T12:32:19;100917.84;;;26.39;40.87
14204;BME280;7185;51.854;6.622;2023-08-08T12:35:29;100901.09;;;26.24;41.62
14204;BME280;7185;51.854;6.622;2023-08-08T12:39:04;100911.22;;;26.44;41.56
14204;BME280;7185;51.854;6.622;2023-08-08T12:42:02;100912.97;;;26.11;42.83
14204;BME280;7185;51.854;6.622;2023-08-08T12:44:35;100917.78;;;25.83;42.36
14204;BME280;7185;51.854;6.622;2023-08-08T12:47:17;100906.53;;;25.77;42.51
14204;BME280;7185;51.854;6.622;2023-08-08T12:50:11;100913.44;;;26.27;41.58
14204;BME280;7185;51.854;6.622;2023-08-08T12:52:58;100902.16;;;25.99;41.96
14204;BME280;7185;51.854;6.622;2023-08-08T12:56:13;100922.97;;;26.31;43.04
14204;BME280;7185;51.854;6.622;2023-08-08T13:02:58;100904.78;;;26.12;42.46
14204;BME280;7185;51.854;6.622;2023-08-08T13:35:04;100907.03;;;26.05;43.78
14204;BME280;7185;51.854;6.622;2023-08-08T13:37:49;100903.63;;;25.81;43.19
14204;BME280;7185;51.854;6.622;2023-08-08T13:40:22;100909.75;;;25.94;42.80
14204;BME280;7185;51.854;6.622;2023-08-08T13:42:57;100917.06;;;25.92;42.11
14204;BME280;7185;51.854;6.622;2023-08-08T13:46:09;100915.91;;;25.01;42.97
14204;BME280;7185;51.854;6.622;2023-08-08T13:49:37;100915.75;;;25.51;42.36
14204;BME280;7185;51.854;6.622;2023-08-08T13:56:44;100914.16;;;25.24;42.98
14204;BME280;7185;51.854;6.622;2023-08-08T13:59:58;100925.13;;;25.21;42.75
14204;BME280;7185;51.854;6.622;2023-08-08T14:06:45;100920.03;;;25.29;43.05
14204;BME280;7185;51.854;6.622;2023-08-08T14:19:11;100928.03;;;24.56;44.04
14204;BME280;7185;51.854;6.622;2023-08-08T14:31:11;100934.22;;;24.70;43.54
14204;BME280;7185;51.854;6.622;2023-08-08T14:34:09;100931.41;;;24.84;42.90
14204;BME280;7185;51.854;6.622;2023-08-08T14:36:54;100950.03;;;24.98;43.49
14204;BME280;7185;51.854;6.622;2023-08-08T14:40:00;100935.13;;;24.94;42.98
14204;BME280;7185;51.854;6.622;2023-08-08T14:42:51;100935.28;;;24.80;43.36
14204;BME280;7185;51.854;6.622;2023-08-08T14:45:50;100949.06;;;24.24;44.77
14204;BME280;7185;51.854;6.622;2023-08-08T14:48:52;100937.03;;;24.42;44.80
14204;BME280;7185;51.854;6.622;2023-08-08T14:51:29;100955.53;;;23.95;45.51
14204;BME280;7185;51.854;6.622;2023-08-08T14:54:12;100941.31;;;25.08;44.41
14204;BME280;7185;51.854;6.622;2023-08-08T14:57:04;100942.75;;;24.88;43.76
14204;BME280;7185;51.854;6.622;2023-08-08T15:00:17;100958.28;;;24.45;44.66
14204;BME280;7185;51.854;6.622;2023-08-08T15:03:34;100943.69;;;24.49;44.11
14204;BME280;7185;51.854;6.622;2023-08-08T15:06:20;100948.00;;;24.89;43.87
14204;BME280;7185;51.854;6.622;2023-08-08T15:09:36;100951.44;;;24.91;43.76
14204;BME280;7185;51.854;6.622;2023-08-08T15:12:28;100937.91;;;24.93;43.57
14204;BME280;7185;51.854;6.622;2023-08-08T15:18:50;100942.13;;;24.84;43.90
14204;BME280;7185;51.854;6.622;2023-08-08T15:21:39;100939.41;;;24.97;43.96
14204;BME280;7185;51.854;6.622;2023-08-08T15:24:51;100950.56;;;24.66;44.16
14204;BME280;7185;51.854;6.622;2023-08-08T15:27:31;100942.19;;;24.45;44.53
14204;BME280;7185;51.854;6.622;2023-08-08T15:33:55;100940.38;;;25.44;43.52
14204;BME280;7185;51.854;6.622;2023-08-08T15:39:47;100957.56;;;25.18;44.31
14204;BME280;7185;51.854;6.622;2023-08-08T15:42:43;100948.06;;;24.76;43.73
14204;BME280;7185;51.854;6.622;2023-08-08T15:45:44;100963.41;;;24.74;44.00
14204;BME280;7185;51.854;6.622;2023-08-08T15:59:49;100972.38;;;24.60;45.14
14204;BME280;7185;51.854;6.622;2023-08-08T16:12:21;100950.78;;;25.25;44.69
14204;BME280;7185;51.854;6.622;2023-08-08T16:15:30;100955.50;;;24.08;45.63
14204;BME280;7185;51.854;6.622;2023-08-08T16:18:43;100958.28;;;23.94;46.06
14204;BME280;7185;51.854;6.622;2023-08-08T16:21:17;100956.66;;;23.78;47.34
14204;BME280;7185;51.854;6.622;2023-08-08T16:24:04;100955.78;;;23.78;46.21